createdAt,value
2023-01-08T00:00:14.949Z,999.38
2023-01-08T00:01:14.977Z,999.36
2023-01-08T00:02:14.995Z,999.37
2023-01-08T00:03:15.184Z,999.42
2023-01-08T00:04:15.100Z,999.43
2023-01-08T00:05:15.155Z,999.41
2023-01-08T00:06:15.119Z,999.37
2023-01-08T00:07:15.111Z,999.36
2023-01-08T00:08:15.129Z,999.38
2023-01-08T00:09:15.152Z,999.32
2023-01-08T00:10:15.183Z,999.39
2023-01-08T00:11:15.205Z,999.33
2023-01-08T00:12:15.219Z,999.37
2023-01-08T00:13:15.245Z,999.37
2023-01-08T00:14:15.265Z,999.43
2023-01-08T00:15:15.290Z,999.43
2023-01-08T00:16:15.365Z,999.39
2023-01-08T00:17:15.343Z,999.35
2023-01-08T00:18:15.359Z,999.33
2023-01-08T00:19:15.383Z,999.36
2023-01-08T00:20:15.405Z,999.36
2023-01-08T00:21:15.518Z,999.37
2023-01-08T00:22:15.445Z,999.43
2023-01-08T00:23:15.468Z,999.39
2023-01-08T00:24:15.494Z,999.37
2023-01-08T00:25:15.512Z,999.36
2023-01-08T00:26:15.564Z,999.34
2023-01-08T00:27:15.557Z,999.28
2023-01-08T00:28:15.586Z,999.24
2023-01-08T00:29:15.605Z,999.26
2023-01-08T00:30:15.625Z,999.26
2023-01-08T00:31:15.670Z,999.27
2023-01-08T00:32:15.671Z,999.26
2023-01-08T00:33:15.695Z,999.24
2023-01-08T00:34:15.735Z,999.28
2023-01-08T00:35:15.742Z,999.21
2023-01-08T00:36:15.773Z,999.27
2023-01-08T00:37:15.889Z,999.22
2023-01-08T00:38:15.810Z,999.22
2023-01-08T00:39:15.831Z,999.24
2023-01-08T00:40:15.852Z,999.20
2023-01-08T00:41:15.885Z,999.21
2023-01-08T00:42:15.908Z,999.17
2023-01-08T00:43:15.920Z,999.24
2023-01-08T00:44:15.964Z,999.16
2023-01-08T00:45:15.972Z,999.20
2023-01-08T00:46:16.033Z,999.15
2023-01-08T00:47:16.014Z,999.18
2023-01-08T00:48:16.032Z,999.15
2023-01-08T00:49:16.069Z,999.12
2023-01-08T00:50:16.079Z,999.13
2023-01-08T00:51:16.098Z,999.13
2023-01-08T00:52:16.122Z,999.17
2023-01-08T00:53:16.237Z,999.11
2023-01-08T00:54:16.174Z,999.08
2023-01-08T00:55:16.195Z,999.05
2023-01-08T00:56:16.214Z,999.03
2023-01-08T00:57:16.235Z,999.04
2023-01-08T00:58:16.298Z,999.01
2023-01-08T00:59:16.282Z,999.02
2023-01-08T01:00:16.332Z,998.95
2023-01-08T01:01:16.490Z,999.00
2023-01-08T01:02:16.401Z,999.00
2023-01-08T01:03:16.372Z,998.95
2023-01-08T01:04:16.495Z,998.95
2023-01-08T01:05:16.417Z,998.95
2023-01-08T01:06:16.440Z,998.92
2023-01-08T01:07:16.462Z,998.94
2023-01-08T01:08:16.483Z,998.93
2023-01-08T01:09:16.609Z,998.91
2023-01-08T01:10:16.536Z,998.90
2023-01-08T01:11:16.553Z,998.88
2023-01-08T01:12:16.578Z,998.94
2023-01-08T01:13:16.598Z,998.96
2023-01-08T01:14:16.621Z,998.99
2023-01-08T01:15:16.645Z,999.01
2023-01-08T01:16:16.736Z,999.00
2023-01-08T01:17:16.731Z,998.97
2023-01-08T01:18:16.713Z,999.03
2023-01-08T01:19:16.732Z,999.04
2023-01-08T01:20:16.766Z,999.06
2023-01-08T01:21:16.776Z,999.02
2023-01-08T01:22:16.803Z,999.02
2023-01-08T01:23:16.822Z,998.99
2023-01-08T01:24:16.848Z,998.94
2023-01-08T01:25:16.966Z,998.95
2023-01-08T01:26:16.890Z,998.90
2023-01-08T01:27:16.923Z,998.91
2023-01-08T01:28:16.937Z,998.91
2023-01-08T01:29:16.961Z,998.90
2023-01-08T01:30:17.005Z,998.86
2023-01-08T01:31:17.061Z,998.88
2023-01-08T01:32:17.042Z,998.89
2023-01-08T01:33:17.049Z,998.92
2023-01-08T01:34:17.093Z,998.94
2023-01-08T01:35:17.093Z,998.92
2023-01-08T01:36:17.118Z,998.94
2023-01-08T01:37:17.139Z,998.95
2023-01-08T01:38:17.159Z,998.93
2023-01-08T01:39:17.188Z,998.88
2023-01-08T01:40:17.214Z,998.91
2023-01-08T01:41:17.322Z,998.87
2023-01-08T01:42:17.251Z,998.90
2023-01-08T01:43:17.272Z,998.89
2023-01-08T01:44:17.299Z,998.88
2023-01-08T01:45:17.317Z,998.88
2023-01-08T01:46:17.423Z,998.87
2023-01-08T01:47:17.374Z,998.84
2023-01-08T01:48:17.392Z,998.81
2023-01-08T01:49:17.421Z,998.73
2023-01-08T01:50:17.431Z,998.74
2023-01-08T01:51:17.451Z,998.77
2023-01-08T01:52:17.495Z,998.77
2023-01-08T01:53:17.506Z,998.76
2023-01-08T01:54:17.525Z,998.83
2023-01-08T01:55:17.539Z,998.80
2023-01-08T01:56:17.566Z,998.87
2023-01-08T01:57:17.690Z,998.90
2023-01-08T01:58:17.634Z,998.89
2023-01-08T01:59:17.640Z,998.93
2023-01-08T02:00:17.659Z,998.89
2023-01-08T02:01:17.822Z,998.89
2023-01-08T02:02:17.867Z,998.92
2023-01-08T02:03:17.722Z,998.95
2023-01-08T02:04:17.790Z,998.99
2023-01-08T02:05:17.773Z,998.98
2023-01-08T02:06:17.797Z,998.97
2023-01-08T02:07:17.811Z,998.95
2023-01-08T02:08:17.837Z,998.94
2023-01-08T02:09:17.857Z,998.91
2023-01-08T02:10:17.885Z,998.88
2023-01-08T02:11:17.903Z,998.85
2023-01-08T02:12:17.946Z,998.78
2023-01-08T02:13:18.045Z,998.82
2023-01-08T02:14:17.975Z,998.79
2023-01-08T02:15:17.993Z,998.86
2023-01-08T02:16:18.049Z,998.81
2023-01-08T02:17:18.037Z,998.81
2023-01-08T02:18:18.062Z,998.77
2023-01-08T02:19:18.096Z,998.76
2023-01-08T02:20:18.110Z,998.76
2023-01-08T02:21:18.126Z,998.82
2023-01-08T02:22:18.150Z,998.76
2023-01-08T02:23:18.173Z,998.82
2023-01-08T02:24:18.197Z,998.80
2023-01-08T02:25:18.221Z,998.87
2023-01-08T02:26:18.255Z,998.91
2023-01-08T02:27:18.268Z,998.90
2023-01-08T02:28:18.285Z,998.91
2023-01-08T02:29:18.419Z,998.84
2023-01-08T02:30:18.332Z,998.80
2023-01-08T02:31:18.402Z,998.80
2023-01-08T02:32:18.377Z,998.81
2023-01-08T02:33:18.405Z,998.81
2023-01-08T02:34:18.423Z,998.79
2023-01-08T02:35:18.449Z,998.77
2023-01-08T02:36:18.472Z,998.74
2023-01-08T02:37:18.494Z,998.68
2023-01-08T02:38:18.520Z,998.69
2023-01-08T02:39:18.554Z,998.68
2023-01-08T02:40:18.569Z,998.63
2023-01-08T02:41:18.580Z,998.60
2023-01-08T02:42:18.603Z,998.61
2023-01-08T02:43:18.625Z,998.63
2023-01-08T02:44:18.647Z,998.62
2023-01-08T02:45:18.762Z,998.58
2023-01-08T02:46:18.718Z,998.58
2023-01-08T02:47:18.711Z,998.56
2023-01-08T02:48:18.736Z,998.59
2023-01-08T02:49:18.760Z,998.56
2023-01-08T02:50:18.786Z,998.57
2023-01-08T02:51:18.807Z,998.57
2023-01-08T02:52:18.831Z,998.54
2023-01-08T02:53:18.859Z,998.57
2023-01-08T02:54:18.873Z,998.49
2023-01-08T02:55:18.898Z,998.55
2023-01-08T02:56:18.922Z,998.52
2023-01-08T02:57:18.941Z,998.50
2023-01-08T02:58:18.965Z,998.42
2023-01-08T02:59:18.999Z,998.40
2023-01-08T03:00:19.008Z,998.41
2023-01-08T03:01:19.278Z,998.40
2023-01-08T03:02:19.179Z,998.37
2023-01-08T03:03:19.094Z,998.32
2023-01-08T03:04:19.152Z,998.32
2023-01-08T03:05:19.119Z,998.29
2023-01-08T03:06:19.143Z,998.27
2023-01-08T03:07:19.167Z,998.28
2023-01-08T03:08:19.193Z,998.25
2023-01-08T03:09:19.210Z,998.29
2023-01-08T03:10:19.242Z,998.28
2023-01-08T03:11:19.286Z,998.22
2023-01-08T03:12:19.280Z,998.25
2023-01-08T03:13:19.302Z,998.23
2023-01-08T03:14:19.325Z,998.24
2023-01-08T03:15:19.354Z,998.24
2023-01-08T03:16:19.461Z,998.19
2023-01-08T03:17:26.654Z,998.14
2023-01-08T03:19:23.900Z,998.19
2023-01-08T03:20:23.417Z,998.16
2023-01-08T03:22:27.427Z,998.16
2023-01-08T03:23:27.437Z,998.20
2023-01-08T03:25:31.949Z,998.13
2023-01-08T03:26:31.460Z,998.14
2023-01-08T03:28:35.472Z,998.17
2023-01-08T03:29:35.516Z,998.13
2023-01-08T03:31:28.964Z,998.10
2023-01-08T03:32:28.575Z,998.11
2023-01-08T03:34:32.495Z,998.11
2023-01-08T03:35:32.511Z,998.12
2023-01-08T03:37:37.013Z,998.08
2023-01-08T03:38:36.542Z,998.03
2023-01-08T03:40:40.545Z,998.01
2023-01-08T03:41:40.560Z,998.04
2023-01-08T03:43:45.051Z,997.97
2023-01-08T03:44:44.588Z,997.94
2023-01-08T03:46:48.594Z,997.94
2023-01-08T03:47:48.702Z,997.91
2023-01-08T03:49:53.098Z,997.90
2023-01-08T03:50:52.626Z,997.89
2023-01-08T03:52:58.144Z,997.88
2023-01-08T03:53:56.646Z,997.89
2023-01-08T03:56:01.141Z,997.86
2023-01-08T03:57:00.694Z,997.87
2023-01-08T03:59:04.708Z,997.88
2023-01-08T04:00:04.746Z,997.86
2023-01-08T04:01:58.340Z,997.87
2023-01-08T04:02:57.763Z,997.82
2023-01-08T04:05:01.694Z,997.78
2023-01-08T04:06:01.689Z,997.78
2023-01-08T04:08:06.183Z,997.72
2023-01-08T04:09:05.718Z,997.67
2023-01-08T04:10:58.654Z,997.66
2023-01-08T04:11:58.667Z,997.68
2023-01-08T04:14:03.160Z,997.66
2023-01-08T04:15:02.689Z,997.69
2023-01-08T04:17:06.734Z,997.61
2023-01-08T04:18:06.736Z,997.62
2023-01-08T04:20:11.214Z,997.62
2023-01-08T04:21:10.760Z,997.55
2023-01-08T04:23:14.763Z,997.58
2023-01-08T04:24:14.772Z,997.54
2023-01-08T04:26:19.264Z,997.56
2023-01-08T04:27:18.789Z,997.54
2023-01-08T04:29:22.829Z,997.51
2023-01-08T04:30:22.825Z,997.52
2023-01-08T04:32:27.810Z,997.54
2023-01-08T04:33:26.834Z,997.53
2023-01-08T04:35:30.845Z,997.55
2023-01-08T04:36:30.859Z,997.48
2023-01-08T04:38:35.355Z,997.48
2023-01-08T04:39:34.891Z,997.47
2023-01-08T04:41:27.824Z,997.50
2023-01-08T04:42:27.838Z,997.48
2023-01-08T04:44:32.333Z,997.49
2023-01-08T04:45:31.871Z,997.50
2023-01-08T04:47:35.877Z,997.50
2023-01-08T04:48:35.973Z,997.51
2023-01-08T04:50:40.374Z,997.47
2023-01-08T04:51:39.905Z,997.44
2023-01-08T04:53:43.916Z,997.45
2023-01-08T04:54:43.951Z,997.45
2023-01-08T04:56:48.423Z,997.44
2023-01-08T04:57:47.953Z,997.45
2023-01-08T04:59:51.968Z,997.40
2023-01-08T05:00:51.985Z,997.37
2023-01-08T05:02:56.646Z,997.35
2023-01-08T05:03:56.107Z,997.35
2023-01-08T05:06:00.014Z,997.32
2023-01-08T05:07:00.029Z,997.33
2023-01-08T05:09:04.517Z,997.29
2023-01-08T05:10:04.060Z,997.32
2023-01-08T05:11:56.995Z,997.30
2023-01-08T05:12:57.006Z,997.29
2023-01-08T05:15:01.500Z,997.26
2023-01-08T05:16:01.138Z,997.27
2023-01-08T05:18:05.037Z,997.27
2023-01-08T05:19:05.149Z,997.22
2023-01-08T05:20:58.545Z,997.17
2023-01-08T05:21:58.003Z,997.19
2023-01-08T05:24:02.013Z,997.23
2023-01-08T05:25:02.021Z,997.21
2023-01-08T05:27:07.015Z,997.22
2023-01-08T05:28:06.060Z,997.20
2023-01-08T05:30:10.056Z,997.21
2023-01-08T05:31:10.113Z,997.27
2023-01-08T05:33:14.564Z,997.19
2023-01-08T05:34:14.205Z,997.17
2023-01-08T05:36:18.103Z,997.17
2023-01-08T05:37:18.127Z,997.16
2023-01-08T05:39:22.619Z,997.14
2023-01-08T05:40:22.142Z,997.15
2023-01-08T05:42:26.152Z,997.14
2023-01-08T05:43:26.165Z,997.15
2023-01-08T05:45:30.660Z,997.12
2023-01-08T05:46:30.354Z,997.10
2023-01-08T05:48:34.199Z,997.10
2023-01-08T05:49:34.307Z,997.13
2023-01-08T05:51:27.199Z,997.11
2023-01-08T05:52:27.159Z,997.08
2023-01-08T05:54:31.186Z,997.13
2023-01-08T05:55:31.178Z,997.17
2023-01-08T05:57:35.671Z,997.13
2023-01-08T05:58:35.220Z,997.10
2023-01-08T06:00:39.223Z,997.12
2023-01-08T06:01:39.339Z,997.13
2023-01-08T06:03:43.735Z,997.15
2023-01-08T06:04:43.360Z,997.15
2023-01-08T06:06:47.267Z,997.17
2023-01-08T06:07:47.281Z,997.14
2023-01-08T06:09:52.777Z,997.19
2023-01-08T06:10:52.319Z,997.14
2023-01-08T06:12:56.337Z,997.09
2023-01-08T06:13:56.351Z,997.09
2023-01-08T06:16:00.864Z,996.89
2023-01-08T06:17:00.375Z,996.95
2023-01-08T06:19:04.385Z,996.92
2023-01-08T06:20:04.491Z,996.96
2023-01-08T06:21:57.875Z,997.00
2023-01-08T06:22:57.341Z,996.98
2023-01-08T06:25:01.351Z,997.03
2023-01-08T06:26:01.422Z,997.03
2023-01-08T06:28:06.857Z,997.03
2023-01-08T06:29:05.882Z,997.03
2023-01-08T06:30:05.900Z,997.07
2023-01-08T06:31:06.000Z,997.02
2023-01-08T06:32:05.944Z,997.00
2023-01-08T06:33:05.970Z,996.97
2023-01-08T06:34:05.986Z,996.99
2023-01-08T06:35:06.008Z,996.97
2023-01-08T06:36:06.134Z,996.99
2023-01-08T06:37:06.072Z,997.05
2023-01-08T06:38:06.089Z,997.08
2023-01-08T06:39:06.103Z,997.08
2023-01-08T06:40:06.131Z,997.05
2023-01-08T06:41:06.141Z,997.04
2023-01-08T06:42:06.176Z,997.03
2023-01-08T06:43:06.192Z,997.02
2023-01-08T06:44:06.214Z,996.99
2023-01-08T06:45:06.238Z,996.96
2023-01-08T06:46:06.289Z,996.97
2023-01-08T06:47:06.281Z,997.00
2023-01-08T06:48:06.332Z,996.99
2023-01-08T06:49:06.326Z,997.00
2023-01-08T06:50:06.350Z,997.00
2023-01-08T06:51:06.367Z,996.96
2023-01-08T06:52:06.484Z,996.99
2023-01-08T06:53:06.409Z,997.00
2023-01-08T06:54:06.441Z,996.97
2023-01-08T06:55:06.464Z,996.98
2023-01-08T06:56:06.483Z,996.99
2023-01-08T06:57:06.503Z,997.02
2023-01-08T06:58:06.523Z,996.99
2023-01-08T06:59:06.549Z,997.00
2023-01-08T07:00:06.570Z,996.92
2023-01-08T07:01:06.592Z,996.97
2023-01-08T07:02:06.835Z,997.01
2023-01-08T07:03:06.827Z,996.98
2023-01-08T07:04:06.659Z,997.01
2023-01-08T07:05:06.683Z,997.02
2023-01-08T07:06:06.708Z,996.96
2023-01-08T07:07:06.728Z,997.03
2023-01-08T07:08:06.854Z,997.03
2023-01-08T07:09:06.780Z,997.04
2023-01-08T07:10:06.791Z,997.03
2023-01-08T07:11:06.817Z,997.01
2023-01-08T07:12:06.837Z,997.04
2023-01-08T07:13:06.858Z,997.07
2023-01-08T07:14:06.881Z,997.05
2023-01-08T07:15:06.908Z,997.04
2023-01-08T07:16:06.973Z,997.05
2023-01-08T07:17:06.950Z,997.07
2023-01-08T07:18:06.968Z,997.05
2023-01-08T07:19:07.001Z,997.10
2023-01-08T07:20:07.013Z,997.10
2023-01-08T07:21:07.046Z,997.10
2023-01-08T07:22:07.058Z,997.12
2023-01-08T07:23:07.086Z,997.11
2023-01-08T07:24:07.195Z,997.10
2023-01-08T07:25:07.158Z,997.16
2023-01-08T07:26:07.144Z,997.18
2023-01-08T07:27:07.164Z,997.14
2023-01-08T07:28:07.192Z,997.19
2023-01-08T07:29:07.213Z,997.23
2023-01-08T07:30:09.511Z,997.23
2023-01-08T07:31:07.353Z,997.23
2023-01-08T07:32:07.281Z,997.23
2023-01-08T07:33:07.301Z,997.22
2023-01-08T07:34:07.330Z,997.20
2023-01-08T07:35:07.347Z,997.21
2023-01-08T07:36:07.382Z,997.22
2023-01-08T07:37:07.392Z,997.18
2023-01-08T07:38:07.415Z,997.18
2023-01-08T07:39:07.454Z,997.17
2023-01-08T07:40:07.555Z,997.20
2023-01-08T07:41:07.480Z,997.26
2023-01-08T07:42:07.508Z,997.16
2023-01-08T07:43:07.542Z,997.14
2023-01-08T07:44:07.549Z,997.10
2023-01-08T07:45:07.583Z,997.11
2023-01-08T07:46:07.645Z,997.13
2023-01-08T07:47:07.615Z,997.05
2023-01-08T07:48:07.639Z,997.12
2023-01-08T07:49:07.661Z,997.05
2023-01-08T07:50:07.686Z,997.05
2023-01-08T07:51:07.705Z,997.04
2023-01-08T07:52:07.727Z,997.05
2023-01-08T07:53:07.752Z,997.03
2023-01-08T07:54:07.774Z,997.04
2023-01-08T07:55:07.794Z,997.05
2023-01-08T07:56:07.925Z,997.04
2023-01-08T07:57:07.840Z,997.09
2023-01-08T07:58:07.860Z,997.07
2023-01-08T07:59:07.882Z,997.10
2023-01-08T08:00:07.919Z,997.09
2023-01-08T08:01:07.976Z,997.11
2023-01-08T08:02:08.077Z,997.11
2023-01-08T08:03:08.011Z,997.13
2023-01-08T08:04:08.001Z,997.14
2023-01-08T08:05:08.016Z,997.15
2023-01-08T08:06:08.038Z,997.05
2023-01-08T08:07:08.061Z,997.11
2023-01-08T08:08:08.082Z,997.07
2023-01-08T08:09:08.151Z,997.04
2023-01-08T08:10:08.130Z,997.06
2023-01-08T08:11:08.156Z,997.00
2023-01-08T08:12:08.263Z,997.05
2023-01-08T08:13:08.197Z,997.05
2023-01-08T08:14:08.222Z,997.03
2023-01-08T08:15:08.238Z,997.05
2023-01-08T08:16:08.318Z,997.02
2023-01-08T08:17:08.284Z,997.06
2023-01-08T08:18:08.314Z,997.06
2023-01-08T08:19:08.328Z,997.09
2023-01-08T08:20:08.356Z,997.11
2023-01-08T08:21:08.368Z,997.13
2023-01-08T08:22:08.394Z,997.17
2023-01-08T08:23:08.418Z,997.19
2023-01-08T08:24:08.445Z,997.18
2023-01-08T08:25:08.464Z,997.14
2023-01-08T08:26:08.500Z,997.11
2023-01-08T08:27:08.511Z,997.15
2023-01-08T08:28:08.538Z,997.19
2023-01-08T08:29:08.555Z,997.24
2023-01-08T08:30:08.582Z,997.30
2023-01-08T08:31:08.679Z,997.40
2023-01-08T08:32:08.618Z,997.48
2023-01-08T08:33:08.643Z,997.54
2023-01-08T08:34:08.661Z,997.50
2023-01-08T08:35:08.686Z,997.49
2023-01-08T08:36:08.714Z,997.60
2023-01-08T08:37:08.736Z,997.58
2023-01-08T08:38:08.769Z,997.57
2023-01-08T08:39:08.778Z,997.58
2023-01-08T08:40:08.801Z,997.57
2023-01-08T08:41:08.821Z,997.58
2023-01-08T08:42:08.851Z,997.55
2023-01-08T08:43:08.876Z,997.51
2023-01-08T08:44:08.981Z,997.53
2023-01-08T08:45:08.925Z,997.44
2023-01-08T08:46:08.931Z,997.37
2023-01-08T08:47:08.958Z,997.34
2023-01-08T08:48:08.974Z,997.28
2023-01-08T08:49:08.997Z,997.14
2023-01-08T08:50:09.034Z,997.24
2023-01-08T08:51:09.039Z,997.32
2023-01-08T08:52:09.081Z,997.35
2023-01-08T08:53:09.092Z,997.34
2023-01-08T08:54:09.103Z,997.39
2023-01-08T08:55:09.126Z,997.36
2023-01-08T08:56:09.145Z,997.30
2023-01-08T08:57:09.179Z,997.32
2023-01-08T08:58:09.207Z,997.35
2023-01-08T08:59:09.220Z,997.37
2023-01-08T09:00:09.329Z,997.39
2023-01-08T09:01:09.321Z,997.33
2023-01-08T09:02:09.481Z,997.33
2023-01-08T09:03:09.436Z,997.32
2023-01-08T09:04:09.325Z,997.35
2023-01-08T09:05:09.348Z,997.34
2023-01-08T09:06:09.378Z,997.31
2023-01-08T09:07:09.391Z,997.29
2023-01-08T09:08:09.410Z,997.29
2023-01-08T09:09:09.447Z,997.22
2023-01-08T09:10:09.457Z,997.15
2023-01-08T09:11:09.481Z,997.14
2023-01-08T09:12:09.503Z,997.06
2023-01-08T09:13:09.540Z,996.93
2023-01-08T09:14:09.544Z,996.90
2023-01-08T09:15:09.586Z,996.88
2023-01-08T09:16:09.739Z,996.93
2023-01-08T09:17:09.616Z,996.94
2023-01-08T09:18:09.636Z,996.96
2023-01-08T09:19:09.660Z,996.98
2023-01-08T09:20:09.691Z,997.04
2023-01-08T09:21:09.719Z,997.01
2023-01-08T09:22:09.729Z,996.99
2023-01-08T09:23:09.766Z,996.97
2023-01-08T09:24:09.776Z,997.00
2023-01-08T09:25:09.800Z,997.01
2023-01-08T09:26:09.814Z,997.08
2023-01-08T09:27:11.191Z,997.10
2023-01-08T09:28:09.859Z,997.17
2023-01-08T09:29:09.907Z,997.17
2023-01-08T09:30:09.906Z,997.17
2023-01-08T09:31:09.939Z,997.11
2023-01-08T09:32:09.967Z,997.10
2023-01-08T09:33:09.988Z,997.11
2023-01-08T09:34:09.992Z,997.14
2023-01-08T09:35:17.998Z,997.15
2023-01-08T09:38:07.974Z,997.24
2023-01-08T09:39:07.501Z,997.24
2023-01-08T09:40:07.517Z,997.23
2023-01-08T09:41:07.548Z,997.27
2023-01-08T09:42:07.562Z,997.25
2023-01-08T09:43:07.590Z,997.25
2023-01-08T09:44:07.609Z,997.27
2023-01-08T09:45:07.636Z,997.29
2023-01-08T09:46:07.648Z,997.29
2023-01-08T09:47:07.779Z,997.28
2023-01-08T09:48:07.796Z,997.30
2023-01-08T09:49:07.715Z,997.34
2023-01-08T09:50:07.746Z,997.32
2023-01-08T09:51:07.762Z,997.32
2023-01-08T09:52:07.780Z,997.29
2023-01-08T09:53:07.806Z,997.31
2023-01-08T09:54:07.832Z,997.33
2023-01-08T09:55:07.854Z,997.32
2023-01-08T09:56:10.592Z,997.29
2023-01-08T09:57:07.893Z,997.29
2023-01-08T09:58:07.921Z,997.25
2023-01-08T09:59:08.162Z,997.22
2023-01-08T10:00:07.962Z,997.18
2023-01-08T10:01:08.105Z,997.17
2023-01-08T10:02:08.158Z,997.12
2023-01-08T10:03:08.047Z,997.10
2023-01-08T10:04:08.147Z,997.13
2023-01-08T10:05:08.074Z,997.08
2023-01-08T10:06:08.097Z,997.09
2023-01-08T10:07:08.121Z,997.10
2023-01-08T10:08:08.173Z,997.04
2023-01-08T10:09:09.163Z,997.06
2023-01-08T10:10:08.185Z,997.03
2023-01-08T10:11:08.209Z,997.02
2023-01-08T10:12:08.232Z,997.04
2023-01-08T10:13:08.248Z,997.08
2023-01-08T10:14:08.276Z,997.04
2023-01-08T10:15:08.293Z,997.05
2023-01-08T10:16:08.351Z,997.07
2023-01-08T10:17:11.510Z,997.07
2023-01-08T10:18:08.362Z,997.04
2023-01-08T10:19:08.392Z,997.09
2023-01-08T10:20:08.504Z,997.08
2023-01-08T10:21:08.432Z,997.11
2023-01-08T10:22:08.464Z,997.06
2023-01-08T10:23:08.477Z,997.14
2023-01-08T10:24:08.502Z,997.13
2023-01-08T10:25:08.515Z,997.09
2023-01-08T10:26:08.541Z,997.11
2023-01-08T10:27:08.565Z,997.13
2023-01-08T10:28:08.585Z,997.09
2023-01-08T10:29:08.602Z,997.07
2023-01-08T10:30:08.632Z,997.04
2023-01-08T10:31:08.722Z,997.02
2023-01-08T10:32:08.670Z,997.02
2023-01-08T10:33:08.694Z,997.00
2023-01-08T10:34:08.778Z,996.96
2023-01-08T10:35:08.740Z,996.96
2023-01-08T10:36:08.771Z,996.95
2023-01-08T10:37:08.803Z,996.88
2023-01-08T10:38:08.818Z,996.86
2023-01-08T10:39:08.829Z,996.85
2023-01-08T10:40:08.857Z,996.84
2023-01-08T10:41:08.871Z,996.83
2023-01-08T10:42:08.892Z,996.84
2023-01-08T10:43:08.919Z,996.77
2023-01-08T10:44:08.941Z,996.79
2023-01-08T10:45:08.964Z,996.74
2023-01-08T10:46:09.118Z,996.72
2023-01-08T10:47:09.007Z,996.73
2023-01-08T10:48:09.027Z,996.70
2023-01-08T10:49:09.049Z,996.72
2023-01-08T10:50:09.081Z,996.64
2023-01-08T10:51:09.093Z,996.64
2023-01-08T10:52:09.116Z,996.63
2023-01-08T10:53:09.141Z,996.68
2023-01-08T10:54:09.161Z,996.66
2023-01-08T10:55:09.185Z,996.69
2023-01-08T10:56:09.207Z,996.64
2023-01-08T10:57:09.225Z,996.67
2023-01-08T10:58:09.249Z,996.65
2023-01-08T10:59:09.271Z,996.66
2023-01-08T11:00:09.300Z,996.64
2023-01-08T11:01:09.458Z,996.63
2023-01-08T11:02:09.509Z,996.59
2023-01-08T11:03:09.362Z,996.59
2023-01-08T11:04:09.385Z,996.58
2023-01-08T11:05:09.404Z,996.55
2023-01-08T11:06:09.437Z,996.58
2023-01-08T11:07:09.463Z,996.53
2023-01-08T11:08:09.475Z,996.57
2023-01-08T11:09:09.496Z,996.54
2023-01-08T11:10:09.518Z,996.53
2023-01-08T11:11:09.551Z,996.51
2023-01-08T11:12:09.566Z,996.46
2023-01-08T11:13:09.598Z,996.47
2023-01-08T11:14:09.608Z,996.41
2023-01-08T11:15:09.632Z,996.40
2023-01-08T11:16:09.681Z,996.37
2023-01-08T11:17:09.675Z,996.33
2023-01-08T11:18:09.699Z,996.35
2023-01-08T11:19:09.719Z,996.35
2023-01-08T11:20:09.743Z,996.32
2023-01-08T11:21:09.763Z,996.31
2023-01-08T11:22:09.788Z,996.31
2023-01-08T11:23:09.809Z,996.35
2023-01-08T11:24:09.847Z,996.30
2023-01-08T11:25:09.856Z,996.31
2023-01-08T11:26:09.881Z,996.27
2023-01-08T11:27:09.907Z,996.34
2023-01-08T11:28:09.925Z,996.34
2023-01-08T11:29:09.956Z,996.32
2023-01-08T11:30:09.970Z,996.28
2023-01-08T11:31:09.992Z,996.33
2023-01-08T11:32:10.020Z,996.30
2023-01-08T11:33:10.046Z,996.25
2023-01-08T11:34:10.052Z,996.24
2023-01-08T11:35:10.108Z,996.18
2023-01-08T11:36:10.096Z,996.20
2023-01-08T11:37:10.125Z,996.15
2023-01-08T11:38:10.150Z,996.13
2023-01-08T11:39:10.177Z,996.10
2023-01-08T11:40:10.188Z,996.08
2023-01-08T11:41:10.215Z,996.03
2023-01-08T11:42:10.239Z,996.04
2023-01-08T11:43:10.260Z,996.02
2023-01-08T11:44:10.279Z,996.05
2023-01-08T11:45:10.307Z,996.00
2023-01-08T11:46:10.343Z,995.96
2023-01-08T11:47:10.353Z,995.97
2023-01-08T11:48:10.373Z,995.95
2023-01-08T11:49:10.398Z,995.91
2023-01-08T11:50:10.419Z,995.89
2023-01-08T11:51:10.444Z,995.91
2023-01-08T11:52:10.463Z,995.82
2023-01-08T11:53:10.483Z,995.86
2023-01-08T11:54:10.524Z,995.83
2023-01-08T11:55:10.533Z,995.79
2023-01-08T11:56:10.558Z,995.79
2023-01-08T11:57:10.575Z,995.79
2023-01-08T11:58:10.607Z,995.78
2023-01-08T11:59:10.623Z,995.70
2023-01-08T12:00:10.642Z,995.69
2023-01-08T12:01:10.685Z,995.71
2023-01-08T12:02:10.743Z,995.69
2023-01-08T12:03:10.747Z,995.72
2023-01-08T12:04:10.735Z,995.64
2023-01-08T12:05:10.757Z,995.67
2023-01-08T12:06:10.778Z,995.62
2023-01-08T12:07:10.804Z,995.60
2023-01-08T12:08:10.823Z,995.59
2023-01-08T12:09:10.858Z,995.53
2023-01-08T12:10:10.873Z,995.55
2023-01-08T12:11:10.920Z,995.49
2023-01-08T12:12:10.917Z,995.52
2023-01-08T12:13:10.937Z,995.51
2023-01-08T12:14:10.963Z,995.46
2023-01-08T12:15:10.988Z,995.43
2023-01-08T12:16:11.052Z,995.37
2023-01-08T12:17:11.028Z,995.41
2023-01-08T12:18:11.063Z,995.40
2023-01-08T12:19:11.079Z,995.42
2023-01-08T12:20:11.126Z,995.41
2023-01-08T12:21:11.122Z,995.34
2023-01-08T12:22:11.145Z,995.39
2023-01-08T12:23:11.170Z,995.35
2023-01-08T12:24:12.059Z,995.32
2023-01-08T12:25:11.214Z,995.33
2023-01-08T12:26:11.231Z,995.34
2023-01-08T12:27:11.257Z,995.31
2023-01-08T12:28:11.280Z,995.28
2023-01-08T12:29:11.301Z,995.27
2023-01-08T12:30:11.322Z,995.28
2023-01-08T12:31:11.476Z,995.27
2023-01-08T12:32:11.399Z,995.28
2023-01-08T12:33:11.391Z,995.25
2023-01-08T12:34:11.426Z,995.21
2023-01-08T12:35:11.436Z,995.27
2023-01-08T12:36:11.458Z,995.18
2023-01-08T12:37:11.484Z,995.19
2023-01-08T12:38:11.512Z,995.20
2023-01-08T12:39:11.528Z,995.20
2023-01-08T12:40:11.553Z,995.14
2023-01-08T12:41:11.576Z,995.11
2023-01-08T12:42:11.600Z,995.11
2023-01-08T12:43:11.624Z,995.10
2023-01-08T12:44:11.657Z,995.04
2023-01-08T12:45:11.668Z,995.07
2023-01-08T12:46:11.734Z,995.01
2023-01-08T12:47:11.707Z,995.05
2023-01-08T12:48:11.731Z,995.04
2023-01-08T12:49:11.755Z,995.00
2023-01-08T12:50:11.776Z,994.96
2023-01-08T12:51:11.798Z,994.97
2023-01-08T12:52:11.825Z,994.92
2023-01-08T12:53:11.847Z,994.91
2023-01-08T12:54:11.871Z,994.96
2023-01-08T12:55:11.895Z,994.95
2023-01-08T12:56:11.913Z,994.90
2023-01-08T12:57:11.938Z,994.88
2023-01-08T12:58:11.962Z,994.86
2023-01-08T12:59:11.990Z,994.86
2023-01-08T13:00:12.102Z,994.84
2023-01-08T13:01:12.088Z,994.79
2023-01-08T13:02:12.178Z,994.80
2023-01-08T13:03:12.076Z,994.72
2023-01-08T13:04:12.100Z,994.67
2023-01-08T13:05:12.126Z,994.71
2023-01-08T13:06:12.147Z,994.69
2023-01-08T13:07:12.177Z,994.66
2023-01-08T13:08:12.191Z,994.65
2023-01-08T13:09:12.216Z,994.65
2023-01-08T13:10:12.236Z,994.59
2023-01-08T13:11:12.259Z,994.58
2023-01-08T13:12:12.282Z,994.53
2023-01-08T13:13:12.303Z,994.51
2023-01-08T13:14:12.335Z,994.58
2023-01-08T13:15:12.353Z,994.52
2023-01-08T13:16:12.412Z,994.49
2023-01-08T13:17:12.399Z,994.49
2023-01-08T13:18:12.423Z,994.53
2023-01-08T13:19:12.446Z,994.49
2023-01-08T13:20:12.474Z,994.46
2023-01-08T13:21:12.488Z,994.44
2023-01-08T13:22:12.519Z,994.44
2023-01-08T13:23:12.538Z,994.44
2023-01-08T13:24:12.562Z,994.42
2023-01-08T13:25:12.583Z,994.41
2023-01-08T13:26:12.625Z,994.39
2023-01-08T13:27:12.641Z,994.36
2023-01-08T13:28:12.684Z,994.35
2023-01-08T13:29:12.682Z,994.31
2023-01-08T13:30:12.702Z,994.34
2023-01-08T13:31:12.725Z,994.35
2023-01-08T13:32:12.746Z,994.30
2023-01-08T13:33:12.770Z,994.28
2023-01-08T13:34:12.796Z,994.28
2023-01-08T13:35:12.818Z,994.28
2023-01-08T13:36:13.359Z,994.25